sensor_id;sensor_type;location;lat;lon;timestamp;temperature;humidity
30973;DHT22;25423;45.624;13.790;2022-08-25T00:00:46;25.10;99.90
30973;DHT22;25423;45.624;13.790;2022-08-25T00:03:11;25.20;99.90
30973;DHT22;25423;45.624;13.790;2022-08-25T00:05:38;25.10;99.90
30973;DHT22;25423;45.624;13.790;2022-08-25T00:08:04;25.20;99.90
30973;DHT22;25423;45.624;13.790;2022-08-25T00:10:31;25.20;99.90
30973;DHT22;25423;45.624;13.790;2022-08-25T00:12:57;25.20;99.90
30973;DHT22;25423;45.624;13.790;2022-08-25T00:15:23;25.10;99.90
30973;DHT22;25423;45.624;13.790;2022-08-25T00:17:49;25.10;99.90
30973;DHT22;25423;45.624;13.790;2022-08-25T00:20:15;25.10;99.90
30973;DHT22;25423;45.624;13.790;2022-08-25T00:22:41;25.10;99.90
30973;DHT22;25423;45.624;13.790;2022-08-25T00:25:06;25.10;99.90
30973;DHT22;25423;45.624;13.790;2022-08-25T00:27:32;25.10;99.90
30973;DHT22;25423;45.624;13.790;2022-08-25T00:30:00;25.00;99.90
30973;DHT22;25423;45.624;13.790;2022-08-25T00:32:26;25.00;99.90
30973;DHT22;25423;45.624;13.790;2022-08-25T00:34:51;24.90;99.90
30973;DHT22;25423;45.624;13.790;2022-08-25T00:37:18;24.80;99.90
30973;DHT22;25423;45.624;13.790;2022-08-25T00:39:43;24.80;99.90
30973;DHT22;25423;45.624;13.790;2022-08-25T00:42:09;24.80;99.90
30973;DHT22;25423;45.624;13.790;2022-08-25T00:44:35;24.80;99.90
30973;DHT22;25423;45.624;13.790;2022-08-25T00:47:01;24.70;99.90
30973;DHT22;25423;45.624;13.790;2022-08-25T00:49:47;24.80;99.90
30973;DHT22;25423;45.624;13.790;2022-08-25T00:52:15;24.80;99.90
30973;DHT22;25423;45.624;13.790;2022-08-25T00:57:11;24.80;99.90
30973;DHT22;25423;45.624;13.790;2022-08-25T00:59:37;24.80;99.90
30973;DHT22;25423;45.624;13.790;2022-08-25T01:02:03;24.80;99.90
30973;DHT22;25423;45.624;13.790;2022-08-25T01:04:29;24.80;99.90
30973;DHT22;25423;45.624;13.790;2022-08-25T01:06:55;24.80;99.90
30973;DHT22;25423;45.624;13.790;2022-08-25T01:09:21;24.80;99.90
30973;DHT22;25423;45.624;13.790;2022-08-25T01:11:47;24.80;99.90
30973;DHT22;25423;45.624;13.790;2022-08-25T01:14:14;24.90;99.90
30973;DHT22;25423;45.624;13.790;2022-08-25T01:16:41;24.90;99.90
30973;DHT22;25423;45.624;13.790;2022-08-25T01:19:08;25.00;99.90
30973;DHT22;25423;45.624;13.790;2022-08-25T01:21:41;25.00;99.90
30973;DHT22;25423;45.624;13.790;2022-08-25T01:24:08;25.00;99.90
30973;DHT22;25423;45.624;13.790;2022-08-25T01:26:34;25.00;99.90
30973;DHT22;25423;45.624;13.790;2022-08-25T01:29:01;25.00;99.90
30973;DHT22;25423;45.624;13.790;2022-08-25T01:31:49;25.00;99.90
30973;DHT22;25423;45.624;13.790;2022-08-25T01:34:16;25.00;99.90
30973;DHT22;25423;45.624;13.790;2022-08-25T01:36:42;25.00;99.90
30973;DHT22;25423;45.624;13.790;2022-08-25T01:39:08;24.80;99.90
30973;DHT22;25423;45.624;13.790;2022-08-25T01:44:12;24.90;99.90
30973;DHT22;25423;45.624;13.790;2022-08-25T01:46:38;24.90;99.90
30973;DHT22;25423;45.624;13.790;2022-08-25T01:49:04;24.80;99.90
30973;DHT22;25423;45.624;13.790;2022-08-25T01:51:33;24.80;99.90
30973;DHT22;25423;45.624;13.790;2022-08-25T01:53:59;24.80;99.90
30973;DHT22;25423;45.624;13.790;2022-08-25T01:56:25;24.80;99.90
30973;DHT22;25423;45.624;13.790;2022-08-25T01:58:50;24.70;99.90
30973;DHT22;25423;45.624;13.790;2022-08-25T02:01:18;24.70;99.90
30973;DHT22;25423;45.624;13.790;2022-08-25T02:03:45;24.60;99.90
30973;DHT22;25423;45.624;13.790;2022-08-25T02:06:12;24.70;99.90
30973;DHT22;25423;45.624;13.790;2022-08-25T02:08:38;24.60;99.90
30973;DHT22;25423;45.624;13.790;2022-08-25T02:11:03;24.60;99.90
30973;DHT22;25423;45.624;13.790;2022-08-25T02:13:29;24.70;99.90
30973;DHT22;25423;45.624;13.790;2022-08-25T02:15:55;24.60;99.90
30973;DHT22;25423;45.624;13.790;2022-08-25T02:18:21;24.60;99.90
30973;DHT22;25423;45.624;13.790;2022-08-25T02:20:47;24.60;99.90
30973;DHT22;25423;45.624;13.790;2022-08-25T02:23:13;24.60;99.90
30973;DHT22;25423;45.624;13.790;2022-08-25T02:25:39;24.70;99.90
30973;DHT22;25423;45.624;13.790;2022-08-25T02:28:05;24.60;99.90
30973;DHT22;25423;45.624;13.790;2022-08-25T02:30:31;24.60;99.90
30973;DHT22;25423;45.624;13.790;2022-08-25T02:32:56;24.60;99.90
30973;DHT22;25423;45.624;13.790;2022-08-25T02:35:22;24.60;99.90
30973;DHT22;25423;45.624;13.790;2022-08-25T02:37:51;24.60;99.90
30973;DHT22;25423;45.624;13.790;2022-08-25T02:40:17;24.60;99.90
30973;DHT22;25423;45.624;13.790;2022-08-25T02:42:42;24.60;99.90
30973;DHT22;25423;45.624;13.790;2022-08-25T02:45:09;24.60;99.90
30973;DHT22;25423;45.624;13.790;2022-08-25T02:47:34;24.60;99.90
30973;DHT22;25423;45.624;13.790;2022-08-25T02:50:03;24.60;99.90
30973;DHT22;25423;45.624;13.790;2022-08-25T02:52:28;24.60;99.90
30973;DHT22;25423;45.624;13.790;2022-08-25T02:54:54;24.60;99.90
30973;DHT22;25423;45.624;13.790;2022-08-25T02:57:20;24.60;99.90
30973;DHT22;25423;45.624;13.790;2022-08-25T02:59:45;24.50;99.90
30973;DHT22;25423;45.624;13.790;2022-08-25T03:02:12;24.60;99.90
30973;DHT22;25423;45.624;13.790;2022-08-25T03:04:38;24.60;99.90
30973;DHT22;25423;45.624;13.790;2022-08-25T03:07:04;24.60;99.90
30973;DHT22;25423;45.624;13.790;2022-08-25T03:09:29;24.60;99.90
30973;DHT22;25423;45.624;13.790;2022-08-25T03:11:55;24.60;99.90
30973;DHT22;25423;45.624;13.790;2022-08-25T03:14:21;24.60;99.90
30973;DHT22;25423;45.624;13.790;2022-08-25T03:16:46;24.60;99.90
30973;DHT22;25423;45.624;13.790;2022-08-25T03:19:12;24.70;99.90
30973;DHT22;25423;45.624;13.790;2022-08-25T03:21:38;24.70;99.90
30973;DHT22;25423;45.624;13.790;2022-08-25T03:24:04;24.60;99.90
30973;DHT22;25423;45.624;13.790;2022-08-25T03:26:29;24.70;99.90
30973;DHT22;25423;45.624;13.790;2022-08-25T03:29:13;24.70;99.90
30973;DHT22;25423;45.624;13.790;2022-08-25T03:31:39;24.70;99.90
30973;DHT22;25423;45.624;13.790;2022-08-25T03:34:07;24.70;99.90
30973;DHT22;25423;45.624;13.790;2022-08-25T03:36:33;24.70;99.90
30973;DHT22;25423;45.624;13.790;2022-08-25T03:38:59;24.70;99.90
30973;DHT22;25423;45.624;13.790;2022-08-25T03:41:27;24.70;99.90
30973;DHT22;25423;45.624;13.790;2022-08-25T03:43:54;24.70;99.90
30973;DHT22;25423;45.624;13.790;2022-08-25T03:46:21;24.60;99.90
30973;DHT22;25423;45.624;13.790;2022-08-25T03:48:47;24.60;99.90
30973;DHT22;25423;45.624;13.790;2022-08-25T03:51:23;24.60;99.90
30973;DHT22;25423;45.624;13.790;2022-08-25T03:53:49;24.60;99.90
30973;DHT22;25423;45.624;13.790;2022-08-25T03:56:15;24.60;99.90
30973;DHT22;25423;45.624;13.790;2022-08-25T03:58:41;24.60;99.90
30973;DHT22;25423;45.624;13.790;2022-08-25T04:01:07;24.60;99.90
30973;DHT22;25423;45.624;13.790;2022-08-25T04:03:33;24.50;99.90
30973;DHT22;25423;45.624;13.790;2022-08-25T04:06:02;24.50;99.90
30973;DHT22;25423;45.624;13.790;2022-08-25T04:08:28;24.50;99.90
30973;DHT22;25423;45.624;13.790;2022-08-25T04:10:53;24.50;99.90
30973;DHT22;25423;45.624;13.790;2022-08-25T04:13:19;24.50;99.90
30973;DHT22;25423;45.624;13.790;2022-08-25T04:18:48;24.50;99.90
30973;DHT22;25423;45.624;13.790;2022-08-25T04:21:15;24.50;99.90
30973;DHT22;25423;45.624;13.790;2022-08-25T04:23:41;24.60;99.90
30973;DHT22;25423;45.624;13.790;2022-08-25T04:26:11;24.60;99.90
30973;DHT22;25423;45.624;13.790;2022-08-25T04:28:37;24.60;99.90
30973;DHT22;25423;45.624;13.790;2022-08-25T04:31:06;24.50;99.90
30973;DHT22;25423;45.624;13.790;2022-08-25T04:33:32;24.50;99.90
30973;DHT22;25423;45.624;13.790;2022-08-25T04:35:58;24.60;99.90
30973;DHT22;25423;45.624;13.790;2022-08-25T04:38:24;24.60;99.90
30973;DHT22;25423;45.624;13.790;2022-08-25T04:41:00;24.60;99.90
30973;DHT22;25423;45.624;13.790;2022-08-25T04:43:27;24.50;99.90
30973;DHT22;25423;45.624;13.790;2022-08-25T04:45:53;24.60;99.90
30973;DHT22;25423;45.624;13.790;2022-08-25T04:48:20;24.60;99.90
30973;DHT22;25423;45.624;13.790;2022-08-25T04:53:43;24.60;99.90
30973;DHT22;25423;45.624;13.790;2022-08-25T04:56:10;24.60;99.90
30973;DHT22;25423;45.624;13.790;2022-08-25T04:58:36;24.60;99.90
30973;DHT22;25423;45.624;13.790;2022-08-25T05:01:02;24.60;99.90
30973;DHT22;25423;45.624;13.790;2022-08-25T05:03:28;24.70;99.90
30973;DHT22;25423;45.624;13.790;2022-08-25T05:05:55;24.70;99.90
30973;DHT22;25423;45.624;13.790;2022-08-25T05:08:21;24.80;99.90
30973;DHT22;25423;45.624;13.790;2022-08-25T05:10:47;24.80;99.90
30973;DHT22;25423;45.624;13.790;2022-08-25T05:13:12;24.80;99.90
30973;DHT22;25423;45.624;13.790;2022-08-25T05:15:38;24.90;99.90
30973;DHT22;25423;45.624;13.790;2022-08-25T05:18:19;24.90;99.90
30973;DHT22;25423;45.624;13.790;2022-08-25T05:20:45;24.90;99.90
30973;DHT22;25423;45.624;13.790;2022-08-25T05:23:11;24.90;99.90
30973;DHT22;25423;45.624;13.790;2022-08-25T05:25:36;25.00;99.90
30973;DHT22;25423;45.624;13.790;2022-08-25T05:28:03;24.90;99.90
30973;DHT22;25423;45.624;13.790;2022-08-25T05:30:28;25.00;99.90
30973;DHT22;25423;45.624;13.790;2022-08-25T05:32:54;25.00;99.90
30973;DHT22;25423;45.624;13.790;2022-08-25T05:35:20;25.00;99.90
30973;DHT22;25423;45.624;13.790;2022-08-25T05:37:46;25.10;99.90
30973;DHT22;25423;45.624;13.790;2022-08-25T05:40:11;25.10;99.90
30973;DHT22;25423;45.624;13.790;2022-08-25T05:42:37;25.20;99.90
30973;DHT22;25423;45.624;13.790;2022-08-25T05:45:03;25.30;99.90
30973;DHT22;25423;45.624;13.790;2022-08-25T05:47:30;25.30;99.90
30973;DHT22;25423;45.624;13.790;2022-08-25T05:49:55;25.30;99.90
30973;DHT22;25423;45.624;13.790;2022-08-25T05:52:21;25.50;99.90
30973;DHT22;25423;45.624;13.790;2022-08-25T05:54:47;25.60;99.90
30973;DHT22;25423;45.624;13.790;2022-08-25T05:57:12;25.70;99.90
30973;DHT22;25423;45.624;13.790;2022-08-25T06:02:28;25.90;99.90
30973;DHT22;25423;45.624;13.790;2022-08-25T06:05:11;26.00;99.90
30973;DHT22;25423;45.624;13.790;2022-08-25T06:07:38;26.00;99.90
30973;DHT22;25423;45.624;13.790;2022-08-25T06:10:05;26.20;99.90
30973;DHT22;25423;45.624;13.790;2022-08-25T06:12:34;26.30;99.90
30973;DHT22;25423;45.624;13.790;2022-08-25T06:15:00;26.30;99.90
30973;DHT22;25423;45.624;13.790;2022-08-25T06:17:26;26.20;99.90
30973;DHT22;25423;45.624;13.790;2022-08-25T06:19:52;26.20;99.90
30973;DHT22;25423;45.624;13.790;2022-08-25T06:22:19;26.30;99.90
30973;DHT22;25423;45.624;13.790;2022-08-25T06:24:45;26.20;99.90
30973;DHT22;25423;45.624;13.790;2022-08-25T06:27:11;26.30;99.90
30973;DHT22;25423;45.624;13.790;2022-08-25T06:29:36;26.40;99.90
30973;DHT22;25423;45.624;13.790;2022-08-25T06:32:02;26.50;99.90
30973;DHT22;25423;45.624;13.790;2022-08-25T06:34:28;26.70;99.90
30973;DHT22;25423;45.624;13.790;2022-08-25T06:36:53;26.70;99.90
30973;DHT22;25423;45.624;13.790;2022-08-25T06:39:19;26.70;99.90
30973;DHT22;25423;45.624;13.790;2022-08-25T06:41:45;26.60;99.90
30973;DHT22;25423;45.624;13.790;2022-08-25T06:44:14;26.60;99.90
30973;DHT22;25423;45.624;13.790;2022-08-25T06:46:40;26.60;99.90
30973;DHT22;25423;45.624;13.790;2022-08-25T06:49:05;26.70;99.90
30973;DHT22;25423;45.624;13.790;2022-08-25T06:51:31;26.80;99.90
30973;DHT22;25423;45.624;13.790;2022-08-25T06:53:56;26.80;99.90
30973;DHT22;25423;45.624;13.790;2022-08-25T06:56:22;26.90;99.90
30973;DHT22;25423;45.624;13.790;2022-08-25T06:58:48;26.90;99.90
30973;DHT22;25423;45.624;13.790;2022-08-25T07:01:18;26.90;99.90
30973;DHT22;25423;45.624;13.790;2022-08-25T07:03:52;26.80;99.90
30973;DHT22;25423;45.624;13.790;2022-08-25T07:06:18;27.00;99.90
30973;DHT22;25423;45.624;13.790;2022-08-25T07:08:44;27.00;99.90
30973;DHT22;25423;45.624;13.790;2022-08-25T07:11:10;27.00;99.90
30973;DHT22;25423;45.624;13.790;2022-08-25T07:13:36;27.10;99.90
30973;DHT22;25423;45.624;13.790;2022-08-25T07:16:03;27.10;99.90
30973;DHT22;25423;45.624;13.790;2022-08-25T07:18:28;27.20;99.90
30973;DHT22;25423;45.624;13.790;2022-08-25T07:20:54;27.30;99.90
30973;DHT22;25423;45.624;13.790;2022-08-25T07:23:21;27.30;99.90
30973;DHT22;25423;45.624;13.790;2022-08-25T07:25:46;27.20;99.90
30973;DHT22;25423;45.624;13.790;2022-08-25T07:28:12;27.30;99.90
30973;DHT22;25423;45.624;13.790;2022-08-25T07:30:38;27.30;99.90
30973;DHT22;25423;45.624;13.790;2022-08-25T07:33:03;27.40;99.90
30973;DHT22;25423;45.624;13.790;2022-08-25T07:35:29;27.40;99.90
30973;DHT22;25423;45.624;13.790;2022-08-25T07:37:57;27.30;99.90
30973;DHT22;25423;45.624;13.790;2022-08-25T07:40:24;27.40;99.90
30973;DHT22;25423;45.624;13.790;2022-08-25T07:42:52;27.50;99.90
30973;DHT22;25423;45.624;13.790;2022-08-25T07:45:19;27.50;99.90
30973;DHT22;25423;45.624;13.790;2022-08-25T07:47:46;27.50;99.90
30973;DHT22;25423;45.624;13.790;2022-08-25T07:50:12;27.40;99.90
30973;DHT22;25423;45.624;13.790;2022-08-25T07:52:38;27.40;99.90
30973;DHT22;25423;45.624;13.790;2022-08-25T07:55:04;27.30;99.90
30973;DHT22;25423;45.624;13.790;2022-08-25T07:57:31;27.40;99.90
30973;DHT22;25423;45.624;13.790;2022-08-25T07:59:57;27.40;99.90
30973;DHT22;25423;45.624;13.790;2022-08-25T08:02:23;27.50;99.90
30973;DHT22;25423;45.624;13.790;2022-08-25T08:04:49;27.60;99.90
30973;DHT22;25423;45.624;13.790;2022-08-25T08:07:24;27.60;99.90
30973;DHT22;25423;45.624;13.790;2022-08-25T08:09:50;27.70;99.90
30973;DHT22;25423;45.624;13.790;2022-08-25T08:12:16;27.70;99.90
30973;DHT22;25423;45.624;13.790;2022-08-25T08:14:42;27.90;99.90
30973;DHT22;25423;45.624;13.790;2022-08-25T08:17:08;28.00;99.90
30973;DHT22;25423;45.624;13.790;2022-08-25T08:19:35;27.90;99.90
30973;DHT22;25423;45.624;13.790;2022-08-25T08:22:01;27.90;99.90
30973;DHT22;25423;45.624;13.790;2022-08-25T08:24:28;28.00;99.90
30973;DHT22;25423;45.624;13.790;2022-08-25T08:26:54;27.80;99.90
30973;DHT22;25423;45.624;13.790;2022-08-25T08:29:19;27.90;99.90
30973;DHT22;25423;45.624;13.790;2022-08-25T08:31:47;28.00;99.90
30973;DHT22;25423;45.624;13.790;2022-08-25T08:34:13;28.00;99.90
30973;DHT22;25423;45.624;13.790;2022-08-25T08:36:38;28.00;99.90
30973;DHT22;25423;45.624;13.790;2022-08-25T08:39:04;28.10;99.90
30973;DHT22;25423;45.624;13.790;2022-08-25T08:41:49;28.10;99.90
30973;DHT22;25423;45.624;13.790;2022-08-25T08:57:53;28.60;99.90
30973;DHT22;25423;45.624;13.790;2022-08-25T09:00:20;28.50;99.90
30973;DHT22;25423;45.624;13.790;2022-08-25T09:02:57;28.70;99.90
30973;DHT22;25423;45.624;13.790;2022-08-25T09:05:25;28.50;99.90
30973;DHT22;25423;45.624;13.790;2022-08-25T09:07:55;28.40;99.90
30973;DHT22;25423;45.624;13.790;2022-08-25T09:10:22;28.50;99.90
30973;DHT22;25423;45.624;13.790;2022-08-25T09:12:52;28.40;99.90
30973;DHT22;25423;45.624;13.790;2022-08-25T09:18:26;28.50;99.90
30973;DHT22;25423;45.624;13.790;2022-08-25T09:29:09;28.50;99.90
30973;DHT22;25423;45.624;13.790;2022-08-25T09:31:38;28.50;99.90
30973;DHT22;25423;45.624;13.790;2022-08-25T09:34:27;28.50;99.90
30973;DHT22;25423;45.624;13.790;2022-08-25T09:36:51;28.40;99.90
30973;DHT22;25423;45.624;13.790;2022-08-25T09:39:17;28.40;99.90
30973;DHT22;25423;45.624;13.790;2022-08-25T09:44:23;28.50;99.90
30973;DHT22;25423;45.624;13.790;2022-08-25T09:47:03;28.60;99.90
30973;DHT22;25423;45.624;13.790;2022-08-25T09:49:39;28.60;99.90
30973;DHT22;25423;45.624;13.790;2022-08-25T09:52:25;28.60;99.90
30973;DHT22;25423;45.624;13.790;2022-08-25T09:54:51;28.80;99.90
30973;DHT22;25423;45.624;13.790;2022-08-25T09:57:28;28.90;99.90
30973;DHT22;25423;45.624;13.790;2022-08-25T09:59:54;28.90;99.90
30973;DHT22;25423;45.624;13.790;2022-08-25T10:02:24;29.10;99.90
30973;DHT22;25423;45.624;13.790;2022-08-25T10:04:50;29.00;99.90
30973;DHT22;25423;45.624;13.790;2022-08-25T10:07:20;29.00;99.90
30973;DHT22;25423;45.624;13.790;2022-08-25T10:09:54;29.00;99.90
30973;DHT22;25423;45.624;13.790;2022-08-25T10:12:24;29.00;99.90
30973;DHT22;25423;45.624;13.790;2022-08-25T10:14:53;29.10;99.90
30973;DHT22;25423;45.624;13.790;2022-08-25T10:19:54;28.90;99.90
30973;DHT22;25423;45.624;13.790;2022-08-25T10:22:33;28.90;99.90
30973;DHT22;25423;45.624;13.790;2022-08-25T10:24:59;29.00;99.90
30973;DHT22;25423;45.624;13.790;2022-08-25T10:30:22;29.20;99.90
30973;DHT22;25423;45.624;13.790;2022-08-25T10:32:59;29.20;99.90
30973;DHT22;25423;45.624;13.790;2022-08-25T10:41:04;29.30;99.90
30973;DHT22;25423;45.624;13.790;2022-08-25T10:43:36;29.20;99.90
30973;DHT22;25423;45.624;13.790;2022-08-25T10:48:46;29.10;99.90
30973;DHT22;25423;45.624;13.790;2022-08-25T10:53:53;29.10;99.90
30973;DHT22;25423;45.624;13.790;2022-08-25T10:56:23;29.20;99.90
30973;DHT22;25423;45.624;13.790;2022-08-25T11:04:18;29.40;99.90
30973;DHT22;25423;45.624;13.790;2022-08-25T11:06:51;29.50;99.90
30973;DHT22;25423;45.624;13.790;2022-08-25T11:12:29;29.50;99.90
30973;DHT22;25423;45.624;13.790;2022-08-25T11:14:56;29.50;99.90
30973;DHT22;25423;45.624;13.790;2022-08-25T11:17:33;29.50;99.90
30973;DHT22;25423;45.624;13.790;2022-08-25T11:20:03;29.60;99.90
30973;DHT22;25423;45.624;13.790;2022-08-25T11:22:41;29.60;99.90
30973;DHT22;25423;45.624;13.790;2022-08-25T11:30:37;29.60;99.90
30973;DHT22;25423;45.624;13.790;2022-08-25T11:33:04;29.80;99.90
30973;DHT22;25423;45.624;13.790;2022-08-25T11:35:31;29.90;99.90
30973;DHT22;25423;45.624;13.790;2022-08-25T11:40:56;29.90;99.90
30973;DHT22;25423;45.624;13.790;2022-08-25T11:43:33;30.00;99.90
30973;DHT22;25423;45.624;13.790;2022-08-25T11:51:27;30.10;99.90
30973;DHT22;25423;45.624;13.790;2022-08-25T11:56:37;30.20;99.90
30973;DHT22;25423;45.624;13.790;2022-08-25T11:59:06;30.20;99.90
30973;DHT22;25423;45.624;13.790;2022-08-25T12:09:28;30.30;99.90
30973;DHT22;25423;45.624;13.790;2022-08-25T12:11:55;30.30;99.90
30973;DHT22;25423;45.624;13.790;2022-08-25T12:27:18;30.50;99.90
30973;DHT22;25423;45.624;13.790;2022-08-25T12:29:46;30.50;99.90
30973;DHT22;25423;45.624;13.790;2022-08-25T12:37:51;30.40;99.90
30973;DHT22;25423;45.624;13.790;2022-08-25T12:40:23;30.40;99.90
30973;DHT22;25423;45.624;13.790;2022-08-25T12:42:49;30.40;99.90
30973;DHT22;25423;45.624;13.790;2022-08-25T12:48:02;30.60;99.90
30973;DHT22;25423;45.624;13.790;2022-08-25T12:50:42;30.70;99.90
30973;DHT22;25423;45.624;13.790;2022-08-25T12:53:10;30.90;99.90
30973;DHT22;25423;45.624;13.790;2022-08-25T12:55:37;30.90;99.90
30973;DHT22;25423;45.624;13.790;2022-08-25T12:58:04;30.80;99.90
30973;DHT22;25423;45.624;13.790;2022-08-25T13:00:55;30.60;99.90
30973;DHT22;25423;45.624;13.790;2022-08-25T13:08:19;30.90;99.90
30973;DHT22;25423;45.624;13.790;2022-08-25T13:10:55;30.80;99.90
30973;DHT22;25423;45.624;13.790;2022-08-25T13:16:07;30.90;99.90
30973;DHT22;25423;45.624;13.790;2022-08-25T13:18:35;30.70;99.90
30973;DHT22;25423;45.624;13.790;2022-08-25T13:21:14;30.60;99.90
30973;DHT22;25423;45.624;13.790;2022-08-25T13:23:41;30.70;99.90
30973;DHT22;25423;45.624;13.790;2022-08-25T13:26:11;30.70;99.90
30973;DHT22;25423;45.624;13.790;2022-08-25T13:28:38;30.90;99.90
30973;DHT22;25423;45.624;13.790;2022-08-25T13:33:30;31.10;99.90
30973;DHT22;25423;45.624;13.790;2022-08-25T13:35:57;31.10;99.90
30973;DHT22;25423;45.624;13.790;2022-08-25T13:38:43;31.20;99.90
30973;DHT22;25423;45.624;13.790;2022-08-25T13:41:08;31.30;99.90
30973;DHT22;25423;45.624;13.790;2022-08-25T13:43:35;31.20;99.90
30973;DHT22;25423;45.624;13.790;2022-08-25T13:46:01;31.30;99.90
30973;DHT22;25423;45.624;13.790;2022-08-25T13:48:36;31.20;99.90
30973;DHT22;25423;45.624;13.790;2022-08-25T13:51:21;31.20;99.90
30973;DHT22;25423;45.624;13.790;2022-08-25T13:53:55;31.20;99.90
30973;DHT22;25423;45.624;13.790;2022-08-25T13:56:25;31.40;99.90
30973;DHT22;25423;45.624;13.790;2022-08-25T13:58:52;31.60;99.90
30973;DHT22;25423;45.624;13.790;2022-08-25T14:01:25;31.60;99.90
30973;DHT22;25423;45.624;13.790;2022-08-25T14:03:52;31.60;99.90
30973;DHT22;25423;45.624;13.790;2022-08-25T14:08:44;31.70;99.90
30973;DHT22;25423;45.624;13.790;2022-08-25T14:13:39;31.50;99.90
30973;DHT22;25423;45.624;13.790;2022-08-25T14:16:18;31.40;99.90
30973;DHT22;25423;45.624;13.790;2022-08-25T14:18:53;31.50;99.90
30973;DHT22;25423;45.624;13.790;2022-08-25T14:21:22;31.60;99.90
30973;DHT22;25423;45.624;13.790;2022-08-25T14:23:48;31.80;99.90
30973;DHT22;25423;45.624;13.790;2022-08-25T14:26:14;31.60;99.90
30973;DHT22;25423;45.624;13.790;2022-08-25T14:28:40;31.50;99.90
30973;DHT22;25423;45.624;13.790;2022-08-25T14:33:39;31.30;99.90
30973;DHT22;25423;45.624;13.790;2022-08-25T14:36:06;31.40;99.90
30973;DHT22;25423;45.624;13.790;2022-08-25T14:38:32;31.30;99.90
30973;DHT22;25423;45.624;13.790;2022-08-25T14:40:58;31.50;99.90
30973;DHT22;25423;45.624;13.790;2022-08-25T14:43:24;31.60;99.90
30973;DHT22;25423;45.624;13.790;2022-08-25T14:45:49;31.70;99.90
30973;DHT22;25423;45.624;13.790;2022-08-25T14:50:52;31.60;99.90
30973;DHT22;25423;45.624;13.790;2022-08-25T14:53:18;31.70;99.90
30973;DHT22;25423;45.624;13.790;2022-08-25T14:55:44;31.60;99.90
30973;DHT22;25423;45.624;13.790;2022-08-25T14:58:10;31.60;99.90
30973;DHT22;25423;45.624;13.790;2022-08-25T15:00:36;31.60;99.90
30973;DHT22;25423;45.624;13.790;2022-08-25T15:03:04;31.70;99.90
30973;DHT22;25423;45.624;13.790;2022-08-25T15:05:30;31.70;99.90
30973;DHT22;25423;45.624;13.790;2022-08-25T15:07:56;31.60;99.90
30973;DHT22;25423;45.624;13.790;2022-08-25T15:10:40;31.70;99.90
30973;DHT22;25423;45.624;13.790;2022-08-25T15:13:06;31.50;99.90
30973;DHT22;25423;45.624;13.790;2022-08-25T15:15:32;31.10;99.90
30973;DHT22;25423;45.624;13.790;2022-08-25T15:17:59;30.90;99.90
30973;DHT22;25423;45.624;13.790;2022-08-25T15:20:25;30.80;99.90
30973;DHT22;25423;45.624;13.790;2022-08-25T15:22:51;30.80;99.90
30973;DHT22;25423;45.624;13.790;2022-08-25T15:25:16;30.80;99.90
30973;DHT22;25423;45.624;13.790;2022-08-25T15:27:42;30.90;99.90
30973;DHT22;25423;45.624;13.790;2022-08-25T15:30:09;30.90;99.90
30973;DHT22;25423;45.624;13.790;2022-08-25T15:32:34;31.10;99.90
30973;DHT22;25423;45.624;13.790;2022-08-25T15:35:00;31.10;99.90
30973;DHT22;25423;45.624;13.790;2022-08-25T15:37:26;31.20;99.90
30973;DHT22;25423;45.624;13.790;2022-08-25T15:39:51;31.10;99.90
30973;DHT22;25423;45.624;13.790;2022-08-25T15:42:17;31.10;99.90
30973;DHT22;25423;45.624;13.790;2022-08-25T15:44:43;31.30;99.90
30973;DHT22;25423;45.624;13.790;2022-08-25T15:47:09;31.30;99.90
30973;DHT22;25423;45.624;13.790;2022-08-25T15:49:34;31.40;99.90
30973;DHT22;25423;45.624;13.790;2022-08-25T15:52:00;31.40;99.90
30973;DHT22;25423;45.624;13.790;2022-08-25T15:54:26;31.50;99.90
30973;DHT22;25423;45.624;13.790;2022-08-25T15:56:52;31.60;99.90
30973;DHT22;25423;45.624;13.790;2022-08-25T15:59:18;31.70;99.90
30973;DHT22;25423;45.624;13.790;2022-08-25T16:01:44;31.50;99.90
30973;DHT22;25423;45.624;13.790;2022-08-25T16:04:10;31.40;99.90
30973;DHT22;25423;45.624;13.790;2022-08-25T16:06:36;31.50;99.90
30973;DHT22;25423;45.624;13.790;2022-08-25T16:09:03;31.30;99.90
30973;DHT22;25423;45.624;13.790;2022-08-25T16:11:30;30.90;99.90
30973;DHT22;25423;45.624;13.790;2022-08-25T16:13:56;30.70;99.90
30973;DHT22;25423;45.624;13.790;2022-08-25T16:16:22;30.70;99.90
30973;DHT22;25423;45.624;13.790;2022-08-25T16:18:48;30.50;99.90
30973;DHT22;25423;45.624;13.790;2022-08-25T16:21:18;30.50;99.90
30973;DHT22;25423;45.624;13.790;2022-08-25T16:23:44;30.50;99.90
30973;DHT22;25423;45.624;13.790;2022-08-25T16:26:10;30.40;99.90
30973;DHT22;25423;45.624;13.790;2022-08-25T16:28:37;30.50;99.90
30973;DHT22;25423;45.624;13.790;2022-08-25T16:31:03;30.30;99.90
30973;DHT22;25423;45.624;13.790;2022-08-25T16:33:29;30.30;99.90
30973;DHT22;25423;45.624;13.790;2022-08-25T16:36:08;30.30;99.90
30973;DHT22;25423;45.624;13.790;2022-08-25T16:38:34;30.30;99.90
30973;DHT22;25423;45.624;13.790;2022-08-25T16:41:03;30.10;99.90
30973;DHT22;25423;45.624;13.790;2022-08-25T16:43:29;30.00;99.90
30973;DHT22;25423;45.624;13.790;2022-08-25T16:45:58;30.10;99.90
30973;DHT22;25423;45.624;13.790;2022-08-25T16:48:24;30.10;99.90
30973;DHT22;25423;45.624;13.790;2022-08-25T16:50:50;30.00;99.90
30973;DHT22;25423;45.624;13.790;2022-08-25T16:53:15;30.00;99.90
30973;DHT22;25423;45.624;13.790;2022-08-25T16:56:04;30.00;99.90
30973;DHT22;25423;45.624;13.790;2022-08-25T16:58:30;30.00;99.90
30973;DHT22;25423;45.624;13.790;2022-08-25T17:01:04;29.80;99.90
30973;DHT22;25423;45.624;13.790;2022-08-25T17:03:30;29.70;99.90
30973;DHT22;25423;45.624;13.790;2022-08-25T17:05:57;29.70;99.90
30973;DHT22;25423;45.624;13.790;2022-08-25T17:08:23;29.50;99.90
30973;DHT22;25423;45.624;13.790;2022-08-25T17:11:16;29.40;99.90
30973;DHT22;25423;45.624;13.790;2022-08-25T17:13:42;29.40;99.90
30973;DHT22;25423;45.624;13.790;2022-08-25T17:16:08;29.30;99.90
30973;DHT22;25423;45.624;13.790;2022-08-25T17:18:33;29.20;99.90
30973;DHT22;25423;45.624;13.790;2022-08-25T17:21:00;29.10;99.90
30973;DHT22;25423;45.624;13.790;2022-08-25T17:23:27;29.10;99.90
30973;DHT22;25423;45.624;13.790;2022-08-25T17:25:53;29.10;99.90
30973;DHT22;25423;45.624;13.790;2022-08-25T17:28:19;29.10;99.90
30973;DHT22;25423;45.624;13.790;2022-08-25T17:30:45;29.00;99.90